Time,TemperatureF,DewpointF,PressureIn,WindDirection,WindDirectionDegrees,WindSpeedMPH,WindSpeedGustMPH,Humidity,HourlyPrecipIn,Conditions,Clouds,dailyrainin,SoftwareType,DateUTC
2013-04-27 00:13:00,64.2,59.9,30.11,NE,45,0.0,-999.0,86,-99.99,,,0.00,Acu-Link.com,2013-04-27 04:13:00,
2013-04-27 00:28:00,63.5,59.6,30.10,ENE,67,0.0,-999.0,87,-99.99,,,0.00,Acu-Link.com,2013-04-27 04:28:00,
2013-04-27 00:43:00,63.0,60.0,30.10,NNW,337,0.0,-999.0,90,-99.99,,,0.00,Acu-Link.com,2013-04-27 04:43:00,
2013-04-27 00:58:00,62.2,60.2,30.10,NW,315,0.0,-999.0,93,-99.99,,,0.00,Acu-Link.com,2013-04-27 04:58:00,
2013-04-27 01:13:00,61.9,60.4,30.09,NW,315,0.0,-999.0,95,-99.99,,,0.00,Acu-Link.com,2013-04-27 05:13:00,
2013-04-27 01:28:00,61.7,60.3,30.09,NW,315,0.0,-999.0,95,-99.99,,,0.00,Acu-Link.com,2013-04-27 05:28:00,
2013-04-27 01:44:00,61.3,59.6,30.08,NW,315,0.0,-999.0,94,-99.99,,,0.00,Acu-Link.com,2013-04-27 05:44:00,
2013-04-27 01:59:00,61.0,59.5,30.09,NW,315,0.0,-999.0,95,-99.99,,,0.00,Acu-Link.com,2013-04-27 05:59:00,
2013-04-27 02:14:00,60.6,59.5,30.07,NW,315,0.0,-999.0,96,-99.99,,,0.00,Acu-Link.com,2013-04-27 06:14:00,
2013-04-27 02:30:00,60.1,58.6,30.07,NW,315,0.0,-999.0,95,-99.99,,,0.00,Acu-Link.com,2013-04-27 06:30:00,
2013-04-27 02:45:00,59.7,58.3,30.07,NW,315,0.0,-999.0,95,-99.99,,,0.00,Acu-Link.com,2013-04-27 06:45:00,
2013-04-27 03:00:00,59.4,58.5,30.07,NW,315,0.0,-999.0,97,-99.99,,,0.00,Acu-Link.com,2013-04-27 07:00:00,
2013-04-27 03:16:00,59.2,58.6,30.07,NW,315,0.0,-999.0,98,-99.99,,,0.00,Acu-Link.com,2013-04-27 07:16:00,
2013-04-27 03:31:00,59.0,58.4,30.07,ENE,67,0.0,-999.0,98,-99.99,,,0.00,Acu-Link.com,2013-04-27 07:31:00,
2013-04-27 03:46:00,58.6,58.4,30.07,NNW,337,0.0,-999.0,99,-99.99,,,0.00,Acu-Link.com,2013-04-27 07:46:00,
2013-04-27 04:01:00,58.6,58.4,30.08,SE,135,0.0,-999.0,99,-99.99,,,0.00,Acu-Link.com,2013-04-27 08:01:00,
2013-04-27 04:17:00,58.6,58.1,30.07,ESE,112,0.0,-999.0,98,-99.99,,,0.00,Acu-Link.com,2013-04-27 08:17:00,
2013-04-27 04:32:00,58.5,57.9,30.07,ESE,112,0.0,-999.0,98,-99.99,,,0.00,Acu-Link.com,2013-04-27 08:32:00,
2013-04-27 04:47:00,57.9,57.4,30.07,NNW,337,0.0,-999.0,98,-99.99,,,0.00,Acu-Link.com,2013-04-27 08:47:00,
2013-04-27 05:02:00,58.1,57.8,30.07,NNW,337,0.0,-999.0,99,-99.99,,,0.00,Acu-Link.com,2013-04-27 09:02:00,
2013-04-27 05:18:00,58.1,57.8,30.08,SE,135,0.0,-999.0,99,-99.99,,,0.00,Acu-Link.com,2013-04-27 09:18:00,
2013-04-27 05:33:00,58.3,58.0,30.08,SE,135,0.0,-999.0,99,-99.99,,,0.00,Acu-Link.com,2013-04-27 09:33:00,
2013-04-27 05:48:00,58.3,58.0,30.07,ESE,112,0.0,-999.0,99,-99.99,,,0.00,Acu-Link.com,2013-04-27 09:48:00,
2013-04-27 06:04:00,57.9,57.6,30.06,NNW,337,0.0,-999.0,99,-99.99,,,0.00,Acu-Link.com,2013-04-27 10:04:00,
2013-04-27 06:19:00,57.9,57.6,30.07,North,0,0.0,-999.0,99,-99.99,,,0.00,Acu-Link.com,2013-04-27 10:19:00,
2013-04-27 06:34:00,57.9,57.6,30.07,North,0,0.0,-999.0,99,-99.99,,,0.00,Acu-Link.com,2013-04-27 10:34:00,
2013-04-27 06:49:00,57.9,57.6,30.07,North,0,0.0,-999.0,99,-99.99,,,0.00,Acu-Link.com,2013-04-27 10:49:00,
2013-04-27 07:04:00,58.1,57.8,30.08,SE,135,0.0,-999.0,99,-99.99,,,0.00,Acu-Link.com,2013-04-27 11:04:00,
2013-04-27 07:20:00,59.0,58.7,30.08,NE,45,0.0,-999.0,99,-99.99,,,0.00,Acu-Link.com,2013-04-27 11:20:00,
2013-04-27 07:35:00,59.9,59.6,30.08,WNW,292,0.0,-999.0,99,-99.99,,,0.00,Acu-Link.com,2013-04-27 11:35:00,
2013-04-27 07:50:00,61.9,61.6,30.08,NNW,337,0.0,-999.0,99,-99.99,,,0.00,Acu-Link.com,2013-04-27 11:50:00,
2013-04-27 08:06:00,63.0,62.4,30.10,ENE,67,0.0,-999.0,98,-99.99,,,0.00,Acu-Link.com,2013-04-27 12:06:00,
2013-04-27 08:21:00,66.0,64.5,30.10,West,270,0.0,-999.0,95,-99.99,,,0.00,Acu-Link.com,2013-04-27 12:21:00,
2013-04-27 08:36:00,70.2,65.1,30.09,NNW,337,0.0,-999.0,84,-99.99,,,0.00,Acu-Link.com,2013-04-27 12:36:00,
2013-04-27 08:52:00,72.9,65.2,30.10,NNW,337,0.0,-999.0,77,-99.99,,,0.00,Acu-Link.com,2013-04-27 12:52:00,
2013-04-27 09:07:00,74.1,64.9,30.10,SSE,157,1.6,-999.0,73,-99.99,,,0.00,Acu-Link.com,2013-04-27 13:07:00,
2013-04-27 09:22:00,75.6,65.1,30.10,WNW,292,1.1,-999.0,70,-99.99,,,0.00,Acu-Link.com,2013-04-27 13:22:00,
2013-04-27 09:37:00,76.5,64.2,30.10,South,180,2.2,-999.0,66,-99.99,,,0.00,Acu-Link.com,2013-04-27 13:37:00,
2013-04-27 09:52:00,75.4,63.6,30.10,ESE,112,2.2,-999.0,67,-99.99,,,0.00,Acu-Link.com,2013-04-27 13:52:00,
2013-04-27 10:08:00,76.6,64.0,30.11,ESE,112,5.1,-999.0,65,-99.99,,,0.00,Acu-Link.com,2013-04-27 14:08:00,
2013-04-27 10:23:00,76.6,64.0,30.10,SSE,157,5.8,-999.0,65,-99.99,,,0.00,Acu-Link.com,2013-04-27 14:23:00,
2013-04-27 10:38:00,76.1,62.6,30.10,NNE,22,1.6,-999.0,63,-99.99,,,0.00,Acu-Link.com,2013-04-27 14:38:00,
2013-04-27 10:54:00,77.4,62.8,30.11,SW,225,4.3,-999.0,61,-99.99,,,0.00,Acu-Link.com,2013-04-27 14:54:00,
2013-04-27 11:09:00,76.6,62.6,30.11,SSE,157,3.1,-999.0,62,-99.99,,,0.00,Acu-Link.com,2013-04-27 15:09:00,
2013-04-27 11:24:00,77.9,61.9,30.11,ESE,112,2.7,-999.0,58,-99.99,,,0.00,Acu-Link.com,2013-04-27 15:24:00,
2013-04-27 11:39:00,77.5,62.5,30.10,SSE,157,1.6,-999.0,60,-99.99,,,0.00,Acu-Link.com,2013-04-27 15:39:00,
2013-04-27 11:55:00,77.7,61.7,30.10,SSE,157,6.7,-999.0,58,-99.99,,,0.00,Acu-Link.com,2013-04-27 15:55:00,
2013-04-27 12:10:00,77.9,60.4,30.10,SE,135,7.4,-999.0,55,-99.99,,,0.00,Acu-Link.com,2013-04-27 16:10:00,
2013-04-27 12:25:00,78.3,60.7,30.09,SSE,157,3.8,-999.0,55,-99.99,,,0.00,Acu-Link.com,2013-04-27 16:25:00,
2013-04-27 12:40:00,78.8,60.2,30.08,South,180,1.6,-999.0,53,-99.99,,,0.00,Acu-Link.com,2013-04-27 16:40:00,
2013-04-27 12:55:00,78.8,59.1,30.08,South,180,4.3,-999.0,51,-99.99,,,0.00,Acu-Link.com,2013-04-27 16:55:00,
2013-04-27 13:11:00,78.6,59.5,30.07,SSE,157,2.7,-999.0,52,-99.99,,,0.00,Acu-Link.com,2013-04-27 17:11:00,
2013-04-27 13:26:00,78.6,59.0,30.07,SW,225,1.6,-999.0,51,-99.99,,,0.00,Acu-Link.com,2013-04-27 17:26:00,
2013-04-27 13:41:00,78.8,59.1,30.06,South,180,2.2,-999.0,51,-99.99,,,0.00,Acu-Link.com,2013-04-27 17:41:00,
2013-04-27 13:57:00,78.1,59.0,30.06,South,180,1.6,-999.0,52,-99.99,,,0.00,Acu-Link.com,2013-04-27 17:57:00,
2013-04-27 14:12:00,78.6,59.5,30.06,NE,45,2.7,-999.0,52,-99.99,,,0.00,Acu-Link.com,2013-04-27 18:12:00,
2013-04-27 14:27:00,79.2,58.3,30.05,East,90,7.8,-999.0,49,-99.99,,,0.00,Acu-Link.com,2013-04-27 18:27:00,
2013-04-27 14:42:00,79.2,57.8,30.05,NNE,22,3.8,-999.0,48,-99.99,,,0.00,Acu-Link.com,2013-04-27 18:42:00,
2013-04-27 14:58:00,78.8,57.4,30.05,South,180,3.8,-999.0,48,-99.99,,,0.00,Acu-Link.com,2013-04-27 18:58:00,
2013-04-27 15:13:00,80.6,56.6,30.04,NE,45,3.1,-999.0,44,-99.99,,,0.00,Acu-Link.com,2013-04-27 19:13:00,
2013-04-27 15:28:00,81.0,57.0,30.04,SSE,157,3.8,-999.0,44,-99.99,,,0.00,Acu-Link.com,2013-04-27 19:28:00,
2013-04-27 15:43:00,79.0,56.4,30.03,SSW,202,4.3,-999.0,46,-99.99,,,0.00,Acu-Link.com,2013-04-27 19:43:00,
2013-04-27 15:58:00,80.8,57.4,30.03,SSW,202,4.3,-999.0,45,-99.99,,,0.00,Acu-Link.com,2013-04-27 19:58:00,
2013-04-27 16:13:00,81.1,57.8,30.02,NNE,22,2.7,-999.0,45,-99.99,,,0.00,Acu-Link.com,2013-04-27 20:13:00,
2013-04-27 16:29:00,83.7,57.4,30.01,NNE,22,3.1,-999.0,41,-99.99,,,0.00,Acu-Link.com,2013-04-27 20:29:00,
2013-04-27 16:44:00,85.1,57.3,30.02,SSW,202,4.3,-999.0,39,-99.99,,,0.00,Acu-Link.com,2013-04-27 20:44:00,
2013-04-27 16:59:00,86.4,58.4,30.02,SSW,202,2.7,-999.0,39,-99.99,,,0.00,Acu-Link.com,2013-04-27 20:59:00,
2013-04-27 17:15:00,83.1,56.3,30.02,South,180,3.1,-999.0,40,-99.99,,,0.00,Acu-Link.com,2013-04-27 21:15:00,
2013-04-27 17:30:00,86.0,56.7,30.01,ENE,67,3.1,-999.0,37,-99.99,,,0.00,Acu-Link.com,2013-04-27 21:30:00,
2013-04-27 17:45:00,83.3,55.0,30.01,NE,45,2.7,-999.0,38,-99.99,,,0.00,Acu-Link.com,2013-04-27 21:45:00,
2013-04-27 18:01:00,81.5,56.2,30.01,NE,45,0.0,-999.0,42,-99.99,,,0.00,Acu-Link.com,2013-04-27 22:01:00,
2013-04-27 18:16:00,78.6,57.3,30.01,SE,135,2.2,-999.0,48,-99.99,,,0.00,Acu-Link.com,2013-04-27 22:16:00,
2013-04-27 18:31:00,77.5,57.4,30.01,SW,225,2.7,-999.0,50,-99.99,,,0.00,Acu-Link.com,2013-04-27 22:31:00,
2013-04-27 18:46:00,76.5,57.5,30.00,NE,45,2.7,-999.0,52,-99.99,,,0.00,Acu-Link.com,2013-04-27 22:46:00,
2013-04-27 19:02:00,75.9,57.5,30.00,ENE,67,2.2,-999.0,53,-99.99,,,0.00,Acu-Link.com,2013-04-27 23:02:00,
2013-04-27 19:17:00,75.0,57.2,30.00,NNE,22,1.6,-999.0,54,-99.99,,,0.00,Acu-Link.com,2013-04-27 23:17:00,
2013-04-27 19:32:00,74.1,56.9,30.00,East,90,1.1,-999.0,55,-99.99,,,0.00,Acu-Link.com,2013-04-27 23:32:00,
2013-04-27 19:48:00,73.2,56.6,30.01,SW,225,1.1,-999.0,56,-99.99,,,0.00,Acu-Link.com,2013-04-27 23:48:00,
2013-04-27 20:03:00,72.0,56.8,30.01,NE,45,2.2,-999.0,59,-99.99,,,0.00,Acu-Link.com,2013-04-28 00:03:00,
2013-04-27 20:18:00,71.4,57.3,30.01,SSE,157,1.6,-999.0,61,-99.99,,,0.00,Acu-Link.com,2013-04-28 00:18:00,
2013-04-27 20:34:00,70.5,57.3,30.01,East,90,2.2,-999.0,63,-99.99,,,0.00,Acu-Link.com,2013-04-28 00:34:00,
2013-04-27 20:49:00,69.8,57.9,30.01,ESE,112,0.0,-999.0,66,-99.99,,,0.00,Acu-Link.com,2013-04-28 00:49:00,
2013-04-27 21:04:00,69.3,58.6,30.01,ESE,112,0.0,-999.0,69,-99.99,,,0.00,Acu-Link.com,2013-04-28 01:04:00,
2013-04-27 21:19:00,68.5,58.8,30.01,SE,135,0.0,-999.0,71,-99.99,,,0.00,Acu-Link.com,2013-04-28 01:19:00,
2013-04-27 21:35:00,67.8,59.6,30.02,SE,135,0.0,-999.0,75,-99.99,,,0.00,Acu-Link.com,2013-04-28 01:35:00,
2013-04-27 21:50:00,67.3,59.4,30.02,SSE,157,0.0,-999.0,76,-99.99,,,0.00,Acu-Link.com,2013-04-28 01:50:00,
2013-04-27 22:05:00,67.3,59.8,30.03,SE,135,0.0,-999.0,77,-99.99,,,0.00,Acu-Link.com,2013-04-28 02:05:00,
2013-04-27 22:21:00,67.1,60.0,30.03,East,90,2.2,-999.0,78,-99.99,,,0.00,Acu-Link.com,2013-04-28 02:21:00,
2013-04-27 22:36:00,66.7,60.4,30.03,ESE,112,0.0,-999.0,80,-99.99,,,0.00,Acu-Link.com,2013-04-28 02:36:00,
2013-04-27 22:51:00,66.2,60.2,30.02,NW,315,0.0,-999.0,81,-99.99,,,0.00,Acu-Link.com,2013-04-28 02:51:00,
2013-04-27 23:07:00,65.8,60.5,30.03,ESE,112,0.0,-999.0,83,-99.99,,,0.00,Acu-Link.com,2013-04-28 03:07:00,
2013-04-27 23:22:00,65.3,61.0,30.03,WNW,292,0.0,-999.0,86,-99.99,,,0.00,Acu-Link.com,2013-04-28 03:22:00,
2013-04-27 23:37:00,64.6,61.3,30.03,NW,315,0.0,-999.0,89,-99.99,,,0.00,Acu-Link.com,2013-04-28 03:37:00,
2013-04-27 23:52:00,64.0,61.0,30.03,West,270,0.0,-999.0,90,-99.99,,,0.00,Acu-Link.com,2013-04-28 03:52:00,